sensor_id;sensor_type;location;lat;lon;timestamp;pressure;altitude;pressure_sealevel;temperature;humidity
77778;BME280;66966;-34.746;138.604;2023-04-15T00:02:19;100263.22;;;17.54;44.95
77778;BME280;66966;-34.746;138.604;2023-04-15T00:04:44;100239.30;;;17.59;44.35
77778;BME280;66966;-34.746;138.604;2023-04-15T00:07:09;100229.36;;;17.48;44.04
77778;BME280;66966;-34.746;138.604;2023-04-15T00:09:35;100236.44;;;17.56;43.70
77778;BME280;66966;-34.746;138.604;2023-04-15T00:12:00;100246.41;;;17.59;42.66
77778;BME280;66966;-34.746;138.604;2023-04-15T00:14:26;100245.31;;;17.61;42.20
77778;BME280;66966;-34.746;138.604;2023-04-15T00:16:51;100245.98;;;17.58;42.30
77778;BME280;66966;-34.746;138.604;2023-04-15T00:19:17;100229.97;;;17.51;42.46
77778;BME280;66966;-34.746;138.604;2023-04-15T00:21:42;100206.42;;;17.64;42.66
77778;BME280;66966;-34.746;138.604;2023-04-15T00:24:08;100194.07;;;17.71;43.05
77778;BME280;66966;-34.746;138.604;2023-04-15T00:26:34;100188.77;;;17.65;43.31
77778;BME280;66966;-34.746;138.604;2023-04-15T00:28:59;100203.76;;;17.96;42.78
77778;BME280;66966;-34.746;138.604;2023-04-15T00:31:24;100205.26;;;18.04;42.82
77778;BME280;66966;-34.746;138.604;2023-04-15T00:33:50;100208.20;;;18.18;42.88
77778;BME280;66966;-34.746;138.604;2023-04-15T00:36:15;100214.65;;;17.95;42.77
77778;BME280;66966;-34.746;138.604;2023-04-15T00:38:41;100218.07;;;18.15;42.72
77778;BME280;66966;-34.746;138.604;2023-04-15T00:41:06;100211.46;;;18.27;42.52
77778;BME280;66966;-34.746;138.604;2023-04-15T00:43:31;100206.85;;;18.42;42.97
77778;BME280;66966;-34.746;138.604;2023-04-15T00:45:59;100203.52;;;18.06;42.91
77778;BME280;66966;-34.746;138.604;2023-04-15T00:48:23;100207.58;;;18.39;42.84
77778;BME280;66966;-34.746;138.604;2023-04-15T00:50:48;100210.42;;;18.19;42.09
77778;BME280;66966;-34.746;138.604;2023-04-15T00:53:13;100212.28;;;18.35;41.94
77778;BME280;66966;-34.746;138.604;2023-04-15T00:55:40;100205.35;;;18.32;42.61
77778;BME280;66966;-34.746;138.604;2023-04-15T00:58:04;100199.09;;;18.36;42.61
77778;BME280;66966;-34.746;138.604;2023-04-15T01:00:30;100198.56;;;18.10;42.66
77778;BME280;66966;-34.746;138.604;2023-04-15T01:02:56;100197.22;;;18.09;42.97
77778;BME280;66966;-34.746;138.604;2023-04-15T01:05:21;100191.34;;;18.08;42.95
77778;BME280;66966;-34.746;138.604;2023-04-15T01:07:47;100200.19;;;18.18;43.13
77778;BME280;66966;-34.746;138.604;2023-04-15T01:10:12;100205.89;;;18.48;43.01
77778;BME280;66966;-34.746;138.604;2023-04-15T01:12:37;100203.98;;;18.30;43.23
77778;BME280;66966;-34.746;138.604;2023-04-15T01:15:04;100208.30;;;18.41;43.27
77778;BME280;66966;-34.746;138.604;2023-04-15T01:17:29;100211.85;;;18.48;42.78
77778;BME280;66966;-34.746;138.604;2023-04-15T01:19:55;100210.50;;;17.95;42.66
77778;BME280;66966;-34.746;138.604;2023-04-15T01:22:19;100211.51;;;18.43;43.17
77778;BME280;66966;-34.746;138.604;2023-04-15T01:24:50;100215.06;;;18.52;42.79
77778;BME280;66966;-34.746;138.604;2023-04-15T01:27:11;100214.43;;;18.55;42.82
77778;BME280;66966;-34.746;138.604;2023-04-15T01:29:38;100212.34;;;18.59;43.02
77778;BME280;66966;-34.746;138.604;2023-04-15T01:32:01;100207.17;;;18.52;42.80
77778;BME280;66966;-34.746;138.604;2023-04-15T01:34:27;100203.97;;;18.76;43.09
77778;BME280;66966;-34.746;138.604;2023-04-15T01:36:52;100206.65;;;18.52;43.24
77778;BME280;66966;-34.746;138.604;2023-04-15T01:39:18;100208.26;;;18.50;43.55
77778;BME280;66966;-34.746;138.604;2023-04-15T01:41:43;100208.15;;;18.56;43.83
77778;BME280;66966;-34.746;138.604;2023-04-15T01:44:09;100219.94;;;18.72;43.88
77778;BME280;66966;-34.746;138.604;2023-04-15T01:46:35;100216.68;;;19.00;43.80
77778;BME280;66966;-34.746;138.604;2023-04-15T01:49:00;100214.91;;;18.80;43.89
77778;BME280;66966;-34.746;138.604;2023-04-15T01:51:25;100211.81;;;18.95;43.47
77778;BME280;66966;-34.746;138.604;2023-04-15T01:53:51;100222.94;;;18.60;43.57
77778;BME280;66966;-34.746;138.604;2023-04-15T01:56:16;100231.45;;;18.87;44.16
77778;BME280;66966;-34.746;138.604;2023-04-15T01:58:41;100225.76;;;19.02;44.06
77778;BME280;66966;-34.746;138.604;2023-04-15T02:01:07;100219.81;;;19.07;43.98
77778;BME280;66966;-34.746;138.604;2023-04-15T02:03:33;100217.64;;;19.33;44.10
77778;BME280;66966;-34.746;138.604;2023-04-15T02:05:57;100203.28;;;19.00;43.43
77778;BME280;66966;-34.746;138.604;2023-04-15T02:08:23;100196.27;;;18.96;43.42
77778;BME280;66966;-34.746;138.604;2023-04-15T02:10:49;100194.03;;;18.98;43.11
77778;BME280;66966;-34.746;138.604;2023-04-15T02:13:14;100198.37;;;18.95;43.57
77778;BME280;66966;-34.746;138.604;2023-04-15T02:15:40;100203.65;;;19.12;44.01
77778;BME280;66966;-34.746;138.604;2023-04-15T02:18:05;100202.77;;;19.31;43.83
77778;BME280;66966;-34.746;138.604;2023-04-15T02:20:31;100196.34;;;19.17;43.77
77778;BME280;66966;-34.746;138.604;2023-04-15T02:22:56;100203.01;;;19.47;43.64
77778;BME280;66966;-34.746;138.604;2023-04-15T02:25:22;100198.86;;;19.49;43.35
77778;BME280;66966;-34.746;138.604;2023-04-15T02:27:47;100192.80;;;19.13;42.71
77778;BME280;66966;-34.746;138.604;2023-04-15T02:30:13;100189.25;;;19.37;42.54
77778;BME280;66966;-34.746;138.604;2023-04-15T02:32:39;100190.46;;;19.36;42.46
77778;BME280;66966;-34.746;138.604;2023-04-15T02:35:04;100192.51;;;19.34;41.43
77778;BME280;66966;-34.746;138.604;2023-04-15T02:37:29;100194.19;;;19.20;39.55
77778;BME280;66966;-34.746;138.604;2023-04-15T02:39:54;100200.15;;;18.53;39.20
77778;BME280;66966;-34.746;138.604;2023-04-15T02:42:19;100216.04;;;18.59;38.03
77778;BME280;66966;-34.746;138.604;2023-04-15T02:44:45;100211.38;;;18.30;40.39
77778;BME280;66966;-34.746;138.604;2023-04-15T02:47:10;100215.75;;;18.16;42.68
77778;BME280;66966;-34.746;138.604;2023-04-15T02:49:36;100212.34;;;17.92;43.68
77778;BME280;66966;-34.746;138.604;2023-04-15T02:52:02;100201.47;;;18.00;43.17
77778;BME280;66966;-34.746;138.604;2023-04-15T02:54:27;100192.03;;;18.33;43.58
77778;BME280;66966;-34.746;138.604;2023-04-15T02:56:52;100188.57;;;17.94;43.70
77778;BME280;66966;-34.746;138.604;2023-04-15T02:59:18;100193.20;;;17.95;43.70
77778;BME280;66966;-34.746;138.604;2023-04-15T03:01:43;100198.70;;;17.84;43.89
77778;BME280;66966;-34.746;138.604;2023-04-15T03:04:09;100197.41;;;17.89;43.22
77778;BME280;66966;-34.746;138.604;2023-04-15T03:06:35;100192.43;;;18.16;43.92
77778;BME280;66966;-34.746;138.604;2023-04-15T03:09:00;100181.11;;;18.19;42.76
77778;BME280;66966;-34.746;138.604;2023-04-15T03:11:27;100167.61;;;18.04;43.71
77778;BME280;66966;-34.746;138.604;2023-04-15T03:13:51;100161.73;;;18.51;43.71
77778;BME280;66966;-34.746;138.604;2023-04-15T03:16:17;100154.06;;;18.48;43.98
77778;BME280;66966;-34.746;138.604;2023-04-15T03:18:41;100149.67;;;18.28;43.30
77778;BME280;66966;-34.746;138.604;2023-04-15T03:21:07;100139.94;;;18.54;42.67
77778;BME280;66966;-34.746;138.604;2023-04-15T03:23:32;100142.29;;;18.48;43.58
77778;BME280;66966;-34.746;138.604;2023-04-15T03:26:01;100144.63;;;18.75;43.96
77778;BME280;66966;-34.746;138.604;2023-04-15T03:28:24;100137.16;;;18.94;43.37
77778;BME280;66966;-34.746;138.604;2023-04-15T03:30:49;100133.69;;;19.19;42.75
77778;BME280;66966;-34.746;138.604;2023-04-15T03:33:14;100135.10;;;19.05;42.31
77778;BME280;66966;-34.746;138.604;2023-04-15T03:35:40;100138.88;;;19.31;41.53
77778;BME280;66966;-34.746;138.604;2023-04-15T03:38:05;100132.83;;;19.43;41.35
77778;BME280;66966;-34.746;138.604;2023-04-15T03:40:31;100130.70;;;19.39;40.20
77778;BME280;66966;-34.746;138.604;2023-04-15T03:42:56;100128.09;;;19.11;39.99
77778;BME280;66966;-34.746;138.604;2023-04-15T03:45:22;100123.11;;;19.37;38.58
77778;BME280;66966;-34.746;138.604;2023-04-15T03:47:47;100120.09;;;19.50;38.64
77778;BME280;66966;-34.746;138.604;2023-04-15T03:50:13;100114.54;;;19.37;40.18
77778;BME280;66966;-34.746;138.604;2023-04-15T03:52:38;100111.17;;;19.58;39.10
77778;BME280;66966;-34.746;138.604;2023-04-15T03:55:04;100110.09;;;20.33;39.40
77778;BME280;66966;-34.746;138.604;2023-04-15T03:57:29;100103.56;;;20.14;37.92
77778;BME280;66966;-34.746;138.604;2023-04-15T03:59:54;100096.36;;;19.74;36.26
77778;BME280;66966;-34.746;138.604;2023-04-15T04:02:20;100099.47;;;19.92;36.05
77778;BME280;66966;-34.746;138.604;2023-04-15T04:04:46;100097.68;;;20.09;36.46
77778;BME280;66966;-34.746;138.604;2023-04-15T04:07:15;100101.68;;;19.91;35.96
77778;BME280;66966;-34.746;138.604;2023-04-15T04:09:36;100096.26;;;19.99;36.58
77778;BME280;66966;-34.746;138.604;2023-04-15T04:12:01;100095.70;;;20.06;36.22
77778;BME280;66966;-34.746;138.604;2023-04-15T04:14:27;100089.53;;;20.21;36.46
77778;BME280;66966;-34.746;138.604;2023-04-15T04:16:53;100090.62;;;20.21;35.97
77778;BME280;66966;-34.746;138.604;2023-04-15T04:19:18;100083.79;;;20.33;36.35
77778;BME280;66966;-34.746;138.604;2023-04-15T04:21:43;100072.00;;;20.71;36.50
77778;BME280;66966;-34.746;138.604;2023-04-15T04:24:09;100072.68;;;20.69;35.02
77778;BME280;66966;-34.746;138.604;2023-04-15T04:26:34;100066.59;;;20.37;35.02
77778;BME280;66966;-34.746;138.604;2023-04-15T04:29:00;100069.11;;;20.50;35.20
77778;BME280;66966;-34.746;138.604;2023-04-15T04:31:25;100063.47;;;20.33;35.43
77778;BME280;66966;-34.746;138.604;2023-04-15T04:33:50;100058.48;;;21.04;35.07
77778;BME280;66966;-34.746;138.604;2023-04-15T04:36:16;100061.08;;;20.69;34.18
77778;BME280;66966;-34.746;138.604;2023-04-15T04:38:41;100060.11;;;20.85;34.00
77778;BME280;66966;-34.746;138.604;2023-04-15T04:41:07;100064.79;;;20.66;33.49
77778;BME280;66966;-34.746;138.604;2023-04-15T04:43:32;100072.58;;;20.89;33.54
77778;BME280;66966;-34.746;138.604;2023-04-15T04:45:57;100066.00;;;20.84;33.23
77778;BME280;66966;-34.746;138.604;2023-04-15T04:48:23;100063.72;;;20.68;32.95
77778;BME280;66966;-34.746;138.604;2023-04-15T04:50:48;100061.54;;;20.31;33.07
77778;BME280;66966;-34.746;138.604;2023-04-15T04:53:15;100065.68;;;20.76;33.90
77778;BME280;66966;-34.746;138.604;2023-04-15T04:55:38;100061.30;;;20.73;33.92
77778;BME280;66966;-34.746;138.604;2023-04-15T04:58:04;100068.67;;;20.50;34.09
77778;BME280;66966;-34.746;138.604;2023-04-15T05:00:29;100067.98;;;20.45;33.78
77778;BME280;66966;-34.746;138.604;2023-04-15T05:02:55;100071.93;;;19.96;34.45
77778;BME280;66966;-34.746;138.604;2023-04-15T05:05:20;100067.64;;;20.68;33.58
77778;BME280;66966;-34.746;138.604;2023-04-15T05:07:45;100061.17;;;20.46;34.28
77778;BME280;66966;-34.746;138.604;2023-04-15T05:10:11;100061.94;;;20.58;34.73
77778;BME280;66966;-34.746;138.604;2023-04-15T05:12:36;100061.53;;;20.42;33.44
77778;BME280;66966;-34.746;138.604;2023-04-15T05:15:02;100068.96;;;19.85;33.21
77778;BME280;66966;-34.746;138.604;2023-04-15T05:17:27;100072.38;;;19.93;33.32
77778;BME280;66966;-34.746;138.604;2023-04-15T05:19:52;100087.11;;;19.81;33.50
77778;BME280;66966;-34.746;138.604;2023-04-15T05:22:18;100085.70;;;19.82;34.84
77778;BME280;66966;-34.746;138.604;2023-04-15T05:24:43;100080.86;;;19.69;36.39
77778;BME280;66966;-34.746;138.604;2023-04-15T05:27:09;100082.58;;;19.30;35.60
77778;BME280;66966;-34.746;138.604;2023-04-15T05:29:35;100083.46;;;19.41;36.45
77778;BME280;66966;-34.746;138.604;2023-04-15T05:32:00;100089.80;;;19.25;36.20
77778;BME280;66966;-34.746;138.604;2023-04-15T05:34:25;100092.54;;;19.41;34.70
77778;BME280;66966;-34.746;138.604;2023-04-15T05:36:51;100099.83;;;19.08;34.97
77778;BME280;66966;-34.746;138.604;2023-04-15T05:39:16;100105.53;;;19.19;34.49
77778;BME280;66966;-34.746;138.604;2023-04-15T05:41:42;100104.98;;;18.95;34.14
77778;BME280;66966;-34.746;138.604;2023-04-15T05:44:07;100105.87;;;19.00;34.62
77778;BME280;66966;-34.746;138.604;2023-04-15T05:46:32;100102.10;;;18.98;34.52
77778;BME280;66966;-34.746;138.604;2023-04-15T05:48:58;100103.02;;;18.83;34.43
77778;BME280;66966;-34.746;138.604;2023-04-15T05:51:23;100102.37;;;18.53;34.03
77778;BME280;66966;-34.746;138.604;2023-04-15T05:53:49;100098.91;;;18.39;33.71
77778;BME280;66966;-34.746;138.604;2023-04-15T05:56:14;100100.10;;;18.61;33.80
77778;BME280;66966;-34.746;138.604;2023-04-15T05:58:39;100110.71;;;19.02;34.57
77778;BME280;66966;-34.746;138.604;2023-04-15T06:01:05;100113.08;;;18.63;35.19
77778;BME280;66966;-34.746;138.604;2023-04-15T06:03:30;100114.38;;;18.78;35.25
77778;BME280;66966;-34.746;138.604;2023-04-15T06:05:56;100114.47;;;18.68;34.94
77778;BME280;66966;-34.746;138.604;2023-04-15T06:08:21;100111.98;;;18.67;33.53
77778;BME280;66966;-34.746;138.604;2023-04-15T06:10:47;100109.44;;;19.08;33.26
77778;BME280;66966;-34.746;138.604;2023-04-15T06:13:12;100106.22;;;18.74;33.24
77778;BME280;66966;-34.746;138.604;2023-04-15T06:15:38;100101.78;;;18.80;33.46
77778;BME280;66966;-34.746;138.604;2023-04-15T06:18:03;100101.91;;;18.91;33.00
77778;BME280;66966;-34.746;138.604;2023-04-15T06:20:29;100101.03;;;18.98;32.88
77778;BME280;66966;-34.746;138.604;2023-04-15T06:22:54;100101.36;;;19.03;33.21
77778;BME280;66966;-34.746;138.604;2023-04-15T06:25:20;100101.99;;;19.26;33.89
77778;BME280;66966;-34.746;138.604;2023-04-15T06:27:45;100104.47;;;18.97;34.41
77778;BME280;66966;-34.746;138.604;2023-04-15T06:30:12;100101.45;;;19.03;34.87
77778;BME280;66966;-34.746;138.604;2023-04-15T06:32:36;100095.53;;;19.24;34.62
77778;BME280;66966;-34.746;138.604;2023-04-15T06:35:01;100097.28;;;19.37;34.36
77778;BME280;66966;-34.746;138.604;2023-04-15T06:37:27;100096.82;;;19.70;34.14
77778;BME280;66966;-34.746;138.604;2023-04-15T06:39:52;100097.22;;;19.83;34.35
77778;BME280;66966;-34.746;138.604;2023-04-15T06:42:18;100104.14;;;19.57;34.03
77778;BME280;66966;-34.746;138.604;2023-04-15T06:44:43;100103.10;;;19.86;33.45
77778;BME280;66966;-34.746;138.604;2023-04-15T06:47:09;100103.88;;;19.47;33.50
77778;BME280;66966;-34.746;138.604;2023-04-15T06:49:34;100103.56;;;19.31;33.89
77778;BME280;66966;-34.746;138.604;2023-04-15T06:52:00;100098.83;;;19.42;34.07
77778;BME280;66966;-34.746;138.604;2023-04-15T06:54:25;100102.13;;;19.47;34.22
77778;BME280;66966;-34.746;138.604;2023-04-15T06:56:51;100104.79;;;19.67;34.48
77778;BME280;66966;-34.746;138.604;2023-04-15T06:59:16;100104.26;;;19.59;34.63
77778;BME280;66966;-34.746;138.604;2023-04-15T07:01:41;100105.60;;;19.74;34.87
77778;BME280;66966;-34.746;138.604;2023-04-15T07:04:07;100106.37;;;19.55;34.86
77778;BME280;66966;-34.746;138.604;2023-04-15T07:06:33;100104.81;;;19.48;34.90
77778;BME280;66966;-34.746;138.604;2023-04-15T07:08:58;100102.05;;;19.28;35.04
77778;BME280;66966;-34.746;138.604;2023-04-15T07:11:24;100106.77;;;19.59;35.40
77778;BME280;66966;-34.746;138.604;2023-04-15T07:13:48;100109.18;;;19.76;35.58
77778;BME280;66966;-34.746;138.604;2023-04-15T07:16:14;100110.78;;;19.39;35.28
77778;BME280;66966;-34.746;138.604;2023-04-15T07:18:40;100106.04;;;19.49;34.90
77778;BME280;66966;-34.746;138.604;2023-04-15T07:21:05;100103.86;;;19.19;35.05
77778;BME280;66966;-34.746;138.604;2023-04-15T07:23:30;100098.88;;;19.47;36.18
77778;BME280;66966;-34.746;138.604;2023-04-15T07:25:55;100108.81;;;19.33;37.26
77778;BME280;66966;-34.746;138.604;2023-04-15T07:28:21;100122.11;;;19.30;37.77
77778;BME280;66966;-34.746;138.604;2023-04-15T07:30:47;100137.82;;;19.07;38.21
77778;BME280;66966;-34.746;138.604;2023-04-15T07:33:12;100147.72;;;19.08;38.71
77778;BME280;66966;-34.746;138.604;2023-04-15T07:35:37;100157.66;;;18.71;39.30
77778;BME280;66966;-34.746;138.604;2023-04-15T07:38:03;100183.33;;;18.49;40.15
77778;BME280;66966;-34.746;138.604;2023-04-15T07:40:29;100175.31;;;17.27;37.82
77778;BME280;66966;-34.746;138.604;2023-04-15T07:42:56;100160.41;;;16.83;38.15
77778;BME280;66966;-34.746;138.604;2023-04-15T07:45:19;100142.93;;;16.90;38.76
77778;BME280;66966;-34.746;138.604;2023-04-15T07:47:45;100136.49;;;16.88;38.46
77778;BME280;66966;-34.746;138.604;2023-04-15T07:50:11;100139.52;;;16.77;38.23
77778;BME280;66966;-34.746;138.604;2023-04-15T07:52:36;100145.22;;;16.79;38.42
77778;BME280;66966;-34.746;138.604;2023-04-15T07:55:02;100150.53;;;17.03;38.50
77778;BME280;66966;-34.746;138.604;2023-04-15T07:57:27;100157.57;;;17.16;38.53
77778;BME280;66966;-34.746;138.604;2023-04-15T07:59:54;100159.80;;;17.20;38.51
77778;BME280;66966;-34.746;138.604;2023-04-15T08:02:20;100158.69;;;17.27;38.80
77778;BME280;66966;-34.746;138.604;2023-04-15T08:04:45;100158.32;;;17.15;38.55
77778;BME280;66966;-34.746;138.604;2023-04-15T08:07:09;100158.19;;;17.52;38.60
77778;BME280;66966;-34.746;138.604;2023-04-15T08:09:35;100156.31;;;17.13;39.00
77778;BME280;66966;-34.746;138.604;2023-04-15T08:12:01;100160.33;;;17.40;40.05
77778;BME280;66966;-34.746;138.604;2023-04-15T08:14:27;100163.64;;;17.22;40.47
77778;BME280;66966;-34.746;138.604;2023-04-15T08:16:52;100170.57;;;17.21;40.71
77778;BME280;66966;-34.746;138.604;2023-04-15T08:19:19;100170.85;;;17.23;40.72
77778;BME280;66966;-34.746;138.604;2023-04-15T08:21:43;100178.66;;;17.29;40.99
77778;BME280;66966;-34.746;138.604;2023-04-15T08:24:09;100189.73;;;17.54;40.48
77778;BME280;66966;-34.746;138.604;2023-04-15T08:26:34;100197.44;;;17.41;40.34
77778;BME280;66966;-34.746;138.604;2023-04-15T08:29:01;100204.33;;;16.67;40.19
77778;BME280;66966;-34.746;138.604;2023-04-15T08:31:27;100206.39;;;17.68;39.34
77778;BME280;66966;-34.746;138.604;2023-04-15T08:33:51;100215.90;;;17.72;39.98
77778;BME280;66966;-34.746;138.604;2023-04-15T08:36:16;100219.39;;;17.44;40.64
77778;BME280;66966;-34.746;138.604;2023-04-15T08:38:43;100240.71;;;17.63;41.25
77778;BME280;66966;-34.746;138.604;2023-04-15T08:41:16;100239.57;;;17.59;41.88
77778;BME280;66966;-34.746;138.604;2023-04-15T08:43:34;100246.79;;;17.38;43.26
77778;BME280;66966;-34.746;138.604;2023-04-15T08:45:59;100316.05;;;16.86;44.34
77778;BME280;66966;-34.746;138.604;2023-04-15T08:48:24;100310.59;;;16.12;44.10
77778;BME280;66966;-34.746;138.604;2023-04-15T08:50:49;100324.68;;;15.63;44.42
77778;BME280;66966;-34.746;138.604;2023-04-15T08:53:16;100305.56;;;15.25;44.40
77778;BME280;66966;-34.746;138.604;2023-04-15T08:55:45;100312.46;;;15.05;45.67
77778;BME280;66966;-34.746;138.604;2023-04-15T08:58:07;100310.53;;;15.14;45.78
77778;BME280;66966;-34.746;138.604;2023-04-15T09:00:33;100316.02;;;15.03;44.96
77778;BME280;66966;-34.746;138.604;2023-04-15T09:03:00;100323.99;;;14.79;43.98
77778;BME280;66966;-34.746;138.604;2023-04-15T09:05:23;100327.95;;;14.48;44.54
77778;BME280;66966;-34.746;138.604;2023-04-15T09:07:49;100337.89;;;14.72;44.54
77778;BME280;66966;-34.746;138.604;2023-04-15T09:10:14;100341.07;;;14.45;43.88
77778;BME280;66966;-34.746;138.604;2023-04-15T09:12:40;100342.35;;;14.44;43.34
77778;BME280;66966;-34.746;138.604;2023-04-15T09:15:06;100353.52;;;14.47;43.95
77778;BME280;66966;-34.746;138.604;2023-04-15T09:17:33;100350.16;;;14.62;44.24
77778;BME280;66966;-34.746;138.604;2023-04-15T09:20:09;100359.35;;;14.43;43.83
77778;BME280;66966;-34.746;138.604;2023-04-15T09:22:22;100363.16;;;14.67;43.91
77778;BME280;66966;-34.746;138.604;2023-04-15T09:24:47;100377.22;;;14.80;43.95
77778;BME280;66966;-34.746;138.604;2023-04-15T09:27:16;100383.22;;;14.81;43.95
77778;BME280;66966;-34.746;138.604;2023-04-15T09:29:41;100380.40;;;14.98;44.00
77778;BME280;66966;-34.746;138.604;2023-04-15T09:32:14;100375.23;;;14.87;43.58
77778;BME280;66966;-34.746;138.604;2023-04-15T09:34:34;100375.44;;;14.81;43.43
77778;BME280;66966;-34.746;138.604;2023-04-15T09:36:57;100365.82;;;14.97;42.79
77778;BME280;66966;-34.746;138.604;2023-04-15T09:39:22;100364.96;;;15.11;43.26
77778;BME280;66966;-34.746;138.604;2023-04-15T09:44:24;100380.52;;;15.32;43.42
77778;BME280;66966;-34.746;138.604;2023-04-15T09:46:45;100389.79;;;15.34;42.90
77778;BME280;66966;-34.746;138.604;2023-04-15T09:49:08;100402.47;;;15.43;42.52
77778;BME280;66966;-34.746;138.604;2023-04-15T09:51:34;100402.95;;;15.26;42.64
77778;BME280;66966;-34.746;138.604;2023-04-15T09:53:56;100406.76;;;15.20;42.62
77778;BME280;66966;-34.746;138.604;2023-04-15T09:56:23;100407.31;;;15.32;42.69
77778;BME280;66966;-34.746;138.604;2023-04-15T09:58:55;100396.83;;;15.22;41.42
77778;BME280;66966;-34.746;138.604;2023-04-15T10:01:12;100405.55;;;15.39;41.82
77778;BME280;66966;-34.746;138.604;2023-04-15T10:03:38;100408.74;;;14.80;39.12
77778;BME280;66966;-34.746;138.604;2023-04-15T10:06:04;100410.69;;;14.85;39.18
77778;BME280;66966;-34.746;138.604;2023-04-15T10:08:31;100429.67;;;14.05;40.23
77778;BME280;66966;-34.746;138.604;2023-04-15T10:10:56;100433.29;;;13.87;40.79
77778;BME280;66966;-34.746;138.604;2023-04-15T10:13:25;100442.25;;;13.92;41.65
77778;BME280;66966;-34.746;138.604;2023-04-15T10:15:51;100444.32;;;13.98;42.24
77778;BME280;66966;-34.746;138.604;2023-04-15T10:18:15;100443.76;;;14.23;43.28
77778;BME280;66966;-34.746;138.604;2023-04-15T10:20:37;100448.92;;;14.41;43.91
77778;BME280;66966;-34.746;138.604;2023-04-15T10:23:06;100446.76;;;14.29;44.74
77778;BME280;66966;-34.746;138.604;2023-04-15T10:25:30;100442.46;;;14.53;44.81
77778;BME280;66966;-34.746;138.604;2023-04-15T10:27:54;100446.55;;;13.87;43.73
77778;BME280;66966;-34.746;138.604;2023-04-15T10:30:20;100440.53;;;14.41;43.06
77778;BME280;66966;-34.746;138.604;2023-04-15T10:32:46;100443.32;;;14.36;42.13
77778;BME280;66966;-34.746;138.604;2023-04-15T10:35:11;100435.98;;;14.14;41.26
77778;BME280;66966;-34.746;138.604;2023-04-15T10:37:38;100427.83;;;14.38;40.38
77778;BME280;66966;-34.746;138.604;2023-04-15T10:42:33;100402.99;;;14.36;40.32
77778;BME280;66966;-34.746;138.604;2023-04-15T10:44:58;100407.82;;;14.70;40.45
77778;BME280;66966;-34.746;138.604;2023-04-15T10:47:20;100421.94;;;14.59;40.31
77778;BME280;66966;-34.746;138.604;2023-04-15T10:49:49;100433.85;;;14.67;40.25
77778;BME280;66966;-34.746;138.604;2023-04-15T10:52:12;100441.58;;;14.89;40.44
77778;BME280;66966;-34.746;138.604;2023-04-15T10:54:40;100452.84;;;14.99;40.66
77778;BME280;66966;-34.746;138.604;2023-04-15T10:57:07;100464.13;;;15.12;40.45
77778;BME280;66966;-34.746;138.604;2023-04-15T10:59:30;100472.30;;;14.94;40.28
77778;BME280;66966;-34.746;138.604;2023-04-15T11:01:55;100473.36;;;15.17;40.11
77778;BME280;66966;-34.746;138.604;2023-04-15T11:06:46;100468.01;;;14.81;40.27
77778;BME280;66966;-34.746;138.604;2023-04-15T11:14:06;100438.60;;;14.89;40.02
77778;BME280;66966;-34.746;138.604;2023-04-15T11:16:26;100438.40;;;15.43;39.77
77778;BME280;66966;-34.746;138.604;2023-04-15T11:18:57;100425.90;;;15.36;39.97
77778;BME280;66966;-34.746;138.604;2023-04-15T11:21:18;100437.39;;;15.30;40.15
77778;BME280;66966;-34.746;138.604;2023-04-15T11:23:44;100452.21;;;15.08;40.33
77778;BME280;66966;-34.746;138.604;2023-04-15T11:26:10;100459.29;;;15.09;40.68
77778;BME280;66966;-34.746;138.604;2023-04-15T11:28:37;100450.55;;;15.30;41.10
77778;BME280;66966;-34.746;138.604;2023-04-15T11:31:06;100442.06;;;14.91;41.16
77778;BME280;66966;-34.746;138.604;2023-04-15T11:33:26;100443.93;;;15.32;40.72
77778;BME280;66966;-34.746;138.604;2023-04-15T11:35:55;100467.72;;;15.30;40.52
77778;BME280;66966;-34.746;138.604;2023-04-15T11:38:17;100488.98;;;15.19;40.67
77778;BME280;66966;-34.746;138.604;2023-04-15T11:40:45;100491.32;;;15.17;41.13
77778;BME280;66966;-34.746;138.604;2023-04-15T11:43:10;100482.46;;;15.13;41.10
77778;BME280;66966;-34.746;138.604;2023-04-15T11:45:34;100475.20;;;15.17;41.48
77778;BME280;66966;-34.746;138.604;2023-04-15T11:48:05;100482.16;;;14.71;42.04
77778;BME280;66966;-34.746;138.604;2023-04-15T11:50:25;100485.54;;;14.76;42.46
77778;BME280;66966;-34.746;138.604;2023-04-15T11:52:56;100486.78;;;15.23;42.50
77778;BME280;66966;-34.746;138.604;2023-04-15T11:55:24;100494.45;;;15.03;42.20
77778;BME280;66966;-34.746;138.604;2023-04-15T11:57:44;100500.51;;;14.91;41.72
77778;BME280;66966;-34.746;138.604;2023-04-15T12:00:09;100505.86;;;15.23;43.49
77778;BME280;66966;-34.746;138.604;2023-04-15T12:02:38;100512.46;;;14.82;44.34
77778;BME280;66966;-34.746;138.604;2023-04-15T12:05:05;100517.09;;;14.84;44.49
77778;BME280;66966;-34.746;138.604;2023-04-15T12:07:25;100518.88;;;14.84;44.63
77778;BME280;66966;-34.746;138.604;2023-04-15T12:09:54;100525.25;;;15.23;43.98
77778;BME280;66966;-34.746;138.604;2023-04-15T12:12:15;100526.10;;;14.94;42.84
77778;BME280;66966;-34.746;138.604;2023-04-15T12:14:42;100526.21;;;15.51;42.03
77778;BME280;66966;-34.746;138.604;2023-04-15T12:17:06;100527.89;;;15.19;41.22
77778;BME280;66966;-34.746;138.604;2023-04-15T12:19:36;100532.96;;;14.91;41.64
77778;BME280;66966;-34.746;138.604;2023-04-15T12:22:00;100529.77;;;15.17;41.79
77778;BME280;66966;-34.746;138.604;2023-04-15T12:24:23;100531.42;;;14.97;42.01